Time;durP1;ratioP1;P1;durP2;ratioP2;P2;SDS_P1;SDS_P2;PMS_P1;PMS_P2;Temp;Humidity;BMP_temperature;BMP_pressure;BME280_temperature;BME280_humidity;BME280_pressure;Samples;Min_cycle;Max_cycle;Signal;HPM_P1;HPM_P2
2021/12/26 00:00:33;;;;;;;3.33;1.47;;;;;;;-5.49;62.83;101140.47;4910940;28;97363;-49
2021/12/26 00:02:59;;;;;;;2.60;1.60;;;;;;;-5.47;62.93;101128.25;4896080;28;96872;-52
2021/12/26 00:05:27;;;;;;;2.43;1.50;;;;;;;-5.49;62.66;101125.16;4898925;28;97042;-49
2021/12/26 00:07:52;;;;;;;4.53;1.73;;;;;;;-5.50;62.48;101120.16;4898908;28;96859;-49
2021/12/26 00:10:20;;;;;;;7.37;2.60;;;;;;;-5.54;62.62;101135.44;4903674;28;116748;-50
2021/12/26 00:12:47;;;;;;;11.00;3.23;;;;;;;-5.54;62.81;101116.69;4914425;28;97311;-51
2021/12/26 00:15:12;;;;;;;9.03;3.03;;;;;;;-5.51;62.93;101129.34;4918854;28;97236;-54
2021/12/26 00:17:37;;;;;;;6.37;2.53;;;;;;;-5.52;63.01;101125.91;4919713;28;96929;-50
2021/12/26 00:20:05;;;;;;;4.00;2.30;;;;;;;-5.50;62.75;101133.56;4918227;28;110932;-52
2021/12/26 00:22:30;;;;;;;4.33;2.30;;;;;;;-5.53;62.80;101129.75;4919979;28;97567;-49
2021/12/26 00:24:56;;;;;;;2.57;1.60;;;;;;;-5.50;62.92;101133.56;4915647;28;98303;-53
2021/12/26 00:27:21;;;;;;;3.07;1.80;;;;;;;-5.47;62.96;101136.28;4918536;28;109029;-49
2021/12/26 00:29:47;;;;;;;4.87;2.10;;;;;;;-5.49;62.58;101141.25;4918921;28;97252;-51
2021/12/26 00:32:13;;;;;;;6.40;2.73;;;;;;;-5.46;63.06;101137.81;4917387;28;97208;-50
2021/12/26 00:34:38;;;;;;;8.03;3.30;;;;;;;-5.46;62.43;101134.38;4919190;28;96737;-50
2021/12/26 00:37:05;;;;;;;7.97;4.10;;;;;;;-5.52;62.64;101130.50;4920019;28;97947;-49
2021/12/26 00:39:32;;;;;;;9.73;3.70;;;;;;;-5.55;62.38;101140.03;4916950;28;97351;-54
2021/12/26 00:41:57;;;;;;;15.70;4.00;;;;;;;-5.54;62.63;101143.50;4922176;28;97162;-51
2021/12/26 00:44:22;;;;;;;6.57;2.60;;;;;;;-5.53;62.57;101139.69;4916822;28;126810;-49
2021/12/26 00:46:50;;;;;;;4.63;2.40;;;;;;;-5.55;62.57;101131.25;4920469;28;96759;-52
2021/12/26 00:49:16;;;;;;;7.80;3.60;;;;;;;-5.62;62.69;101131.97;4923790;28;98958;-51
2021/12/26 00:51:41;;;;;;;8.93;3.03;;;;;;;-5.61;62.71;101122.75;4916715;28;97372;-51
2021/12/26 00:54:06;;;;;;;10.50;2.30;;;;;;;-5.61;62.59;101124.66;4914298;28;111833;-51
2021/12/26 00:56:32;;;;;;;8.23;2.40;;;;;;;-5.68;62.25;101121.94;4913581;28;97088;-50
2021/12/26 00:58:57;;;;;;;6.73;2.53;;;;;;;-5.77;62.55;101124.16;4915810;28;98014;-49
2021/12/26 01:01:23;;;;;;;4.83;2.33;;;;;;;-5.81;62.74;101129.47;4918051;28;98885;-49
2021/12/26 01:03:48;;;;;;;5.37;2.60;;;;;;;-5.83;62.71;101125.66;4917557;28;97233;-50
2021/12/26 01:06:13;;;;;;;7.67;2.13;;;;;;;-5.84;62.78;101111.50;4916893;28;97221;-49
2021/12/26 01:08:41;;;;;;;4.97;2.20;;;;;;;-5.88;62.49;101113.41;4919644;28;97179;-51
2021/12/26 01:11:22;;;;;;;3.10;1.90;;;;;;;-5.89;62.88;101122.56;4916664;28;97433;-51
2021/12/26 01:13:49;;;;;;;4.33;2.40;;;;;;;-5.91;62.43;101132.88;4921109;28;97110;-51
2021/12/26 01:16:16;;;;;;;9.10;2.53;;;;;;;-5.89;62.83;101135.16;4919534;28;96848;-51
2021/12/26 01:18:46;;;;;;;4.17;2.70;;;;;;;-5.95;62.31;101136.66;4921944;28;97204;-49
2021/12/26 01:21:25;;;;;;;8.33;3.00;;;;;;;-6.03;62.64;101130.47;4915366;28;103248;-53
2021/12/26 01:23:54;;;;;;;4.50;2.77;;;;;;;-6.06;62.55;101130.41;4918476;28;101658;-51
2021/12/26 01:26:21;;;;;;;4.93;2.27;;;;;;;-6.07;63.06;101134.25;4917424;28;97133;-51
2021/12/26 01:28:47;;;;;;;5.23;1.87;;;;;;;-6.04;63.10;101128.13;4919512;28;97438;-49
2021/12/26 01:31:18;;;;;;;4.67;2.10;;;;;;;-6.02;62.62;101129.31;4921042;28;97718;-49
2021/12/26 01:33:48;;;;;;;7.93;2.20;;;;;;;-6.11;62.40;101124.25;4917440;28;97369;-50
2021/12/26 01:36:14;;;;;;;5.00;2.30;;;;;;;-6.20;62.65;101123.78;4916885;28;97283;-49
2021/12/26 01:38:39;;;;;;;8.40;2.30;;;;;;;-6.23;62.62;101124.53;4916162;28;98246;-50
2021/12/26 01:41:09;;;;;;;1.83;1.57;;;;;;;-6.20;62.97;101117.66;4913990;28;97057;-50
2021/12/26 01:43:36;;;;;;;6.10;2.00;;;;;;;-6.22;62.97;101118.03;4912627;28;98851;-54
2021/12/26 01:46:02;;;;;;;5.17;2.20;;;;;;;-6.24;63.29;101122.97;4919440;28;98828;-49
2021/12/26 01:48:27;;;;;;;2.87;1.90;;;;;;;-6.22;63.28;101123.38;4917756;28;97015;-51
2021/12/26 01:50:53;;;;;;;2.57;1.70;;;;;;;-6.19;63.29;101111.94;4918807;28;108492;-49
2021/12/26 01:53:22;;;;;;;5.20;1.37;;;;;;;-6.12;63.57;101114.69;4917094;28;98605;-51
2021/12/26 01:55:48;;;;;;;1.77;1.03;;;;;;;-6.09;63.15;101113.16;4918307;28;97041;-51
2021/12/26 01:58:18;;;;;;;3.03;1.50;;;;;;;-6.04;63.34;101109.41;4920799;28;97204;-51
2021/12/26 02:00:48;;;;;;;1.70;1.30;;;;;;;-6.03;63.06;101110.94;4916904;28;103316;-49
2021/12/26 02:03:14;;;;;;;2.40;1.20;;;;;;;-5.99;63.19;101109.06;4915794;28;99817;-51
2021/12/26 02:05:40;;;;;;;2.40;1.63;;;;;;;-5.97;63.21;101107.56;4915330;28;97114;-52
2021/12/26 02:08:07;;;;;;;2.03;1.47;;;;;;;-5.93;63.19;101115.63;4914565;28;96951;-49
2021/12/26 02:10:32;;;;;;;3.70;1.50;;;;;;;-5.91;63.19;101108.00;4919160;28;97512;-52
2021/12/26 02:12:58;;;;;;;3.13;1.43;;;;;;;-5.94;62.99;101112.16;4918914;28;97179;-49
2021/12/26 02:15:23;;;;;;;3.77;1.57;;;;;;;-5.91;63.08;101110.66;4916842;28;96837;-49
2021/12/26 02:17:49;;;;;;;3.67;1.87;;;;;;;-5.89;63.06;101121.78;4918692;28;96792;-52
2021/12/26 02:21:32;;;;;;;3.17;1.60;;;;;;;-5.83;62.88;101104.22;4918762;28;97441;-49
2021/12/26 02:23:28;;;;;;;3.47;1.50;;;;;;;-5.90;63.14;101096.16;4911509;28;101531;-51
2021/12/26 02:28:22;;;;;;;2.43;1.10;;;;;;;-5.99;63.35;101095.69;4920998;28;98558;-53
2021/12/26 02:30:49;;;;;;;5.17;1.57;;;;;;;-5.98;63.36;101092.63;4913751;28;100169;-52
2021/12/26 02:33:18;;;;;;;1.70;1.57;;;;;;;-5.97;63.16;101088.03;4914664;28;97240;-49
2021/12/26 02:35:43;;;;;;;3.00;1.53;;;;;;;-5.92;63.56;101098.44;4918759;28;97050;-50
2021/12/26 02:38:10;;;;;;;2.47;1.67;;;;;;;-5.91;63.41;101086.56;4921653;28;97016;-50
2021/12/26 02:40:36;;;;;;;4.27;1.37;;;;;;;-5.91;63.41;101087.34;4917953;28;98168;-49
2021/12/26 02:43:03;;;;;;;2.23;1.33;;;;;;;-5.89;63.33;101085.06;4920046;28;97429;-57
2021/12/26 02:45:29;;;;;;;2.00;1.63;;;;;;;-5.89;63.11;101073.56;4922247;28;97078;-50
2021/12/26 02:47:54;;;;;;;2.57;1.67;;;;;;;-5.90;62.99;101080.06;4921436;28;96922;-52
2021/12/26 02:50:23;;;;;;;4.00;1.20;;;;;;;-5.89;62.90;101084.28;4919765;28;97535;-51
2021/12/26 02:52:50;;;;;;;1.30;0.97;;;;;;;-5.87;62.90;101071.28;4918451;28;97226;-52
2021/12/26 02:55:17;;;;;;;1.90;1.10;;;;;;;-5.86;62.89;101078.97;4919943;28;97234;-52
2021/12/26 02:57:59;;;;;;;2.07;1.77;;;;;;;-5.86;62.79;101076.28;4923272;28;98968;-49
2021/12/26 03:00:28;;;;;;;2.33;1.20;;;;;;;-5.82;63.38;101074.38;4920147;28;97413;-49
2021/12/26 03:02:56;;;;;;;2.40;1.80;;;;;;;-5.77;63.17;101083.97;4921041;28;97250;-53
2021/12/26 03:05:25;;;;;;;2.40;1.20;;;;;;;-5.74;62.77;101088.59;4920275;28;97334;-49
2021/12/26 03:07:51;;;;;;;4.30;1.50;;;;;;;-5.77;62.40;101082.09;4946166;22;96942;-51
2021/12/26 03:10:22;;;;;;;1.40;0.97;;;;;;;-5.88;62.70;101086.59;4949914;28;97579;-50
2021/12/26 03:12:54;;;;;;;1.27;1.03;;;;;;;-5.89;62.70;101070.88;4944703;28;100356;-50
2021/12/26 03:15:20;;;;;;;3.50;1.70;;;;;;;-5.93;62.81;101076.22;4947393;28;97185;-50
2021/12/26 03:17:46;;;;;;;2.47;1.27;;;;;;;-5.91;62.79;101067.81;4951726;28;98225;-50
2021/12/26 03:20:14;;;;;;;1.20;1.10;;;;;;;-5.86;63.17;101073.63;4943682;28;97467;-50
2021/12/26 03:22:40;;;;;;;1.90;1.10;;;;;;;-5.84;62.98;101067.88;4952429;28;97401;-50
2021/12/26 03:25:14;;;;;;;1.90;1.53;;;;;;;-5.84;62.93;101063.28;4947976;28;116254;-51
2021/12/26 03:27:40;;;;;;;1.60;1.20;;;;;;;-5.86;62.63;101064.81;4946895;28;97369;-51
2021/12/26 03:30:07;;;;;;;4.57;1.83;;;;;;;-5.87;63.03;101063.25;4951335;28;99145;-50
2021/12/26 03:32:32;;;;;;;3.50;1.37;;;;;;;-5.87;62.60;101060.56;4951699;28;103886;-50
2021/12/26 03:34:57;;;;;;;1.93;1.27;;;;;;;-5.85;62.89;101066.34;4950068;28;98083;-50
2021/12/26 03:37:23;;;;;;;1.03;0.90;;;;;;;-5.84;62.93;101074.00;4951211;28;116355;-51
2021/12/26 03:39:49;;;;;;;1.93;1.57;;;;;;;-5.85;62.78;101069.78;4947070;28;97553;-51
2021/12/26 03:42:14;;;;;;;4.13;1.43;;;;;;;-5.87;62.48;101072.06;4945849;28;97773;-50
2021/12/26 03:44:40;;;;;;;1.50;1.40;;;;;;;-5.92;62.60;101074.31;4950718;28;98500;-50
2021/12/26 03:47:06;;;;;;;2.57;1.50;;;;;;;-5.98;62.46;101073.13;4944905;28;97040;-51
2021/12/26 03:49:31;;;;;;;5.57;1.87;;;;;;;-6.03;62.35;101074.25;4951404;28;97023;-50
2021/12/26 03:51:56;;;;;;;4.70;2.00;;;;;;;-6.06;62.54;101066.94;4951716;28;97342;-52
2021/12/26 03:54:22;;;;;;;4.17;1.80;;;;;;;-6.03;62.66;101070.78;4951552;28;98982;-50
2021/12/26 03:56:47;;;;;;;3.33;1.20;;;;;;;-6.02;62.50;101066.94;4948628;28;97114;-50
2021/12/26 03:59:12;;;;;;;2.13;1.10;;;;;;;-6.08;62.61;101057.72;4946227;28;126064;-50
2021/12/26 04:01:38;;;;;;;3.60;2.10;;;;;;;-6.08;62.53;101057.72;4945148;28;98568;-51
2021/12/26 04:04:03;;;;;;;3.10;1.60;;;;;;;-6.13;62.59;101051.56;4946865;28;97196;-50
2021/12/26 04:06:30;;;;;;;2.90;1.73;;;;;;;-6.13;63.05;101053.47;4943201;28;97572;-50
2021/12/26 04:08:56;;;;;;;4.13;1.70;;;;;;;-6.09;62.84;101051.59;4940652;28;96966;-50
2021/12/26 04:11:21;;;;;;;3.10;1.40;;;;;;;-6.12;62.70;101053.13;4940221;28;98387;-50
2021/12/26 04:13:47;;;;;;;3.77;1.97;;;;;;;-6.12;62.73;101052.34;4941107;28;97068;-50
2021/12/26 04:16:12;;;;;;;2.10;1.40;;;;;;;-6.14;62.66;101050.03;4946070;28;97140;-50
2021/12/26 04:18:38;;;;;;;3.90;1.67;;;;;;;-6.15;62.63;101045.81;4943413;28;98535;-50
2021/12/26 04:21:05;;;;;;;2.90;1.77;;;;;;;-6.13;62.81;101043.53;4947286;28;97024;-50
2021/12/26 04:23:31;;;;;;;4.10;1.80;;;;;;;-6.14;62.69;101039.31;4944342;28;97158;-51
2021/12/26 04:25:56;;;;;;;5.10;2.63;;;;;;;-6.15;62.74;101048.50;4945999;28;98503;-51
2021/12/26 04:28:21;;;;;;;3.47;2.23;;;;;;;-6.17;62.81;101041.97;4951849;28;125342;-50
2021/12/26 04:30:47;;;;;;;3.40;2.03;;;;;;;-6.20;62.61;101034.66;4943797;28;119421;-50
2021/12/26 04:33:13;;;;;;;4.07;1.90;;;;;;;-6.19;62.64;101034.31;4939899;28;97729;-51
2021/12/26 04:35:38;;;;;;;5.43;2.47;;;;;;;-6.18;62.51;101035.84;4946928;28;97005;-51
2021/12/26 04:38:04;;;;;;;3.30;2.27;;;;;;;-6.19;62.63;101034.31;4945477;28;97406;-50
2021/12/26 04:40:29;;;;;;;5.03;1.97;;;;;;;-6.20;63.08;101030.09;4947278;28;99919;-50
2021/12/26 04:42:55;;;;;;;4.77;1.90;;;;;;;-6.17;62.95;101033.94;4946530;28;97285;-51
2021/12/26 04:45:20;;;;;;;3.40;2.13;;;;;;;-6.17;62.77;101042.75;4945766;28;98643;-51
2021/12/26 04:47:46;;;;;;;3.73;2.00;;;;;;;-6.21;62.55;101031.25;4946813;28;97653;-51
2021/12/26 04:50:16;;;;;;;8.80;2.10;;;;;;;-6.19;62.82;101038.91;4949231;28;99671;-51
2021/12/26 04:52:43;;;;;;;3.60;2.07;;;;;;;-6.15;62.68;101035.13;4948574;28;97244;-50
2021/12/26 04:55:10;;;;;;;3.50;2.33;;;;;;;-6.16;62.82;101033.56;4940680;28;97086;-50
2021/12/26 04:57:36;;;;;;;2.57;1.70;;;;;;;-6.14;63.19;101031.28;4943820;28;98566;-50
2021/12/26 05:00:05;;;;;;;1.87;1.50;;;;;;;-6.16;62.58;101025.53;4941689;28;97115;-50
2021/12/26 05:02:32;;;;;;;1.37;1.27;;;;;;;-6.21;62.76;101033.91;4943728;28;97150;-50
2021/12/26 05:04:58;;;;;;;3.00;1.47;;;;;;;-6.21;62.97;101028.56;4944620;28;96947;-50
2021/12/26 05:07:23;;;;;;;2.50;1.73;;;;;;;-6.23;62.91;101028.16;4944688;28;98165;-50
2021/12/26 05:09:48;;;;;;;4.80;1.53;;;;;;;-6.24;63.11;101023.16;4945237;28;98797;-50
2021/12/26 05:12:14;;;;;;;6.60;2.13;;;;;;;-6.25;62.94;101027.00;4947469;28;97052;-50
2021/12/26 05:14:39;;;;;;;2.90;1.80;;;;;;;-6.24;63.27;101025.84;4948362;28;97066;-51
2021/12/26 05:17:04;;;;;;;2.50;1.90;;;;;;;-6.23;62.82;101022.81;4942762;28;119970;-50
2021/12/26 05:19:30;;;;;;;1.90;1.63;;;;;;;-6.23;63.25;101022.81;4944089;28;118365;-50
2021/12/26 05:21:56;;;;;;;2.00;1.50;;;;;;;-6.19;63.39;101017.47;4941899;28;97237;-50
2021/12/26 05:24:21;;;;;;;2.20;1.47;;;;;;;-6.14;63.24;101020.56;4943649;28;116399;-52
2021/12/26 05:26:46;;;;;;;8.60;1.87;;;;;;;-6.14;62.85;101014.47;4949498;28;105839;-50
2021/12/26 05:29:12;;;;;;;2.90;1.97;;;;;;;-6.18;63.25;101013.66;4942578;28;98230;-50
2021/12/26 05:31:37;;;;;;;5.67;1.90;;;;;;;-6.16;62.91;101051.56;4948175;28;97016;-50
2021/12/26 05:34:03;;;;;;;5.13;2.40;;;;;;;-6.13;63.03;101010.63;4951104;28;97857;-50
2021/12/26 05:36:28;;;;;;;2.23;1.50;;;;;;;-6.12;62.87;101023.69;4947150;28;97265;-52
2021/12/26 05:38:54;;;;;;;2.50;1.90;;;;;;;-6.12;62.78;101012.19;4946325;28;119725;-50
2021/12/26 05:41:19;;;;;;;5.37;1.80;;;;;;;-6.16;62.87;101012.13;4944258;28;97260;-50
2021/12/26 05:43:45;;;;;;;2.60;2.00;;;;;;;-6.17;63.04;101005.25;4942164;28;96856;-51
2021/12/26 05:46:10;;;;;;;3.20;1.73;;;;;;;-6.13;63.24;101005.28;4946927;28;96886;-50
2021/12/26 05:48:35;;;;;;;3.20;1.73;;;;;;;-6.14;63.19;101003.75;4942320;28;97451;-50
2021/12/26 05:51:00;;;;;;;4.30;1.80;;;;;;;-6.17;63.00;101007.94;4949334;28;99906;-51
2021/12/26 05:53:26;;;;;;;2.87;2.13;;;;;;;-6.14;63.30;101009.84;4948905;28;97002;-51
2021/12/26 05:55:51;;;;;;;2.80;2.03;;;;;;;-6.13;63.10;101002.59;4944763;28;113474;-51
2021/12/26 05:58:17;;;;;;;4.30;1.57;;;;;;;-6.14;62.88;101009.84;4945174;28;102910;-51
2021/12/26 06:00:42;;;;;;;2.43;2.03;;;;;;;-6.13;63.39;101014.09;4944916;28;108861;-50
2021/12/26 06:03:07;;;;;;;2.43;1.40;;;;;;;-6.12;63.17;101015.63;4942283;28;96945;-50
2021/12/26 06:05:32;;;;;;;4.40;1.80;;;;;;;-6.11;63.39;101003.00;4943642;28;126827;-50
2021/12/26 06:07:58;;;;;;;2.13;1.60;;;;;;;-6.07;63.23;101003.78;4944366;28;110113;-51
2021/12/26 06:10:23;;;;;;;3.83;1.70;;;;;;;-6.04;63.08;101011.09;4941394;28;97448;-51
2021/12/26 06:12:48;;;;;;;5.57;2.30;;;;;;;-6.02;63.12;101010.72;4944292;28;97037;-50
2021/12/26 06:15:14;;;;;;;2.40;1.50;;;;;;;-5.96;63.60;101011.94;4947265;28;97447;-51
2021/12/26 06:17:39;;;;;;;2.50;1.87;;;;;;;-5.90;63.59;101018.47;4954952;28;98155;-51
2021/12/26 06:20:06;;;;;;;3.17;1.70;;;;;;;-5.87;63.05;101013.13;4944418;28;112986;-50
2021/12/26 06:22:31;;;;;;;1.33;1.23;;;;;;;-5.92;62.88;101021.53;4950088;28;97365;-50
2021/12/26 06:24:57;;;;;;;3.73;1.70;;;;;;;-5.97;62.81;101018.41;4946548;28;97484;-51
2021/12/26 06:27:22;;;;;;;3.17;1.87;;;;;;;-6.00;62.55;101019.16;4947996;28;97356;-50
2021/12/26 06:29:47;;;;;;;1.33;1.23;;;;;;;-6.04;62.80;101018.34;4951866;28;96923;-51
2021/12/26 06:32:13;;;;;;;4.00;2.50;;;;;;;-6.18;62.83;101005.66;4944527;28;98355;-50
2021/12/26 06:34:38;;;;;;;3.00;1.83;;;;;;;-6.22;62.99;101016.31;4945202;28;126913;-50
2021/12/26 06:37:04;;;;;;;7.03;1.80;;;;;;;-6.22;63.16;101020.88;4946594;28;97318;-50
2021/12/26 06:39:29;;;;;;;2.50;1.43;;;;;;;-6.26;62.99;101015.50;4948170;28;97037;-51
2021/12/26 06:41:54;;;;;;;2.83;2.30;;;;;;;-6.24;63.46;101026.63;4946431;28;98025;-51
2021/12/26 06:44:20;;;;;;;2.37;2.00;;;;;;;-6.16;63.42;101025.53;4951381;28;98303;-50
2021/12/26 06:46:45;;;;;;;2.67;1.70;;;;;;;-6.14;63.30;101014.47;4946659;28;97219;-50
2021/12/26 06:49:10;;;;;;;3.30;2.57;;;;;;;-6.21;62.67;101025.88;4952808;28;96848;-51
2021/12/26 06:51:36;;;;;;;2.93;2.60;;;;;;;-6.21;63.03;101025.09;4948623;28;97436;-50
2021/12/26 06:54:01;;;;;;;2.67;2.40;;;;;;;-6.17;62.93;101026.69;4949778;28;98028;-50
2021/12/26 06:56:27;;;;;;;2.47;2.27;;;;;;;-6.11;63.01;101024.41;4952795;28;97505;-50
2021/12/26 06:58:53;;;;;;;3.00;1.67;;;;;;;-6.09;63.06;101027.50;4944833;28;96848;-51
2021/12/26 07:01:18;;;;;;;2.80;1.97;;;;;;;-6.05;63.16;101022.19;4948534;28;97531;-50
2021/12/26 07:03:43;;;;;;;3.47;1.63;;;;;;;-6.00;62.96;101056.63;4952107;28;96754;-51
2021/12/26 07:06:09;;;;;;;1.70;1.40;;;;;;;-6.07;62.32;101027.16;4944084;28;100005;-50
2021/12/26 07:08:34;;;;;;;2.40;1.80;;;;;;;-6.12;62.31;101029.03;4948276;28;97049;-50
2021/12/26 07:10:59;;;;;;;3.30;1.70;;;;;;;-6.16;62.42;101027.47;4949898;28;110735;-51
2021/12/26 07:13:25;;;;;;;4.93;2.00;;;;;;;-6.22;62.60;101021.66;4949758;28;97384;-51
2021/12/26 07:15:50;;;;;;;3.77;2.47;;;;;;;-6.25;62.45;101024.31;4954113;28;120008;-50
2021/12/26 07:18:16;;;;;;;3.03;2.40;;;;;;;-6.40;62.52;101052.84;4948509;28;97765;-50
2021/12/26 07:20:41;;;;;;;3.93;3.30;;;;;;;-6.43;62.61;101024.16;4948753;28;97001;-51
2021/12/26 07:23:07;;;;;;;2.77;1.90;;;;;;;-6.48;62.71;101018.34;4946979;28;97298;-50
2021/12/26 07:25:32;;;;;;;4.60;2.90;;;;;;;-6.49;62.78;101030.19;4944381;28;115798;-52
2021/12/26 07:27:58;;;;;;;7.50;3.77;;;;;;;-6.51;62.74;101019.09;4952567;28;99118;-50
2021/12/26 07:30:23;;;;;;;4.70;3.03;;;;;;;-6.46;62.93;101019.53;4941670;28;98369;-51
2021/12/26 07:32:49;;;;;;;4.70;3.10;;;;;;;-6.40;62.99;101025.31;4941296;28;110707;-50
2021/12/26 07:35:14;;;;;;;3.90;2.77;;;;;;;-6.38;63.06;101026.50;4947663;28;97262;-51
2021/12/26 07:37:40;;;;;;;3.03;2.43;;;;;;;-6.34;62.93;101021.16;4946936;28;97222;-50
2021/12/26 07:40:06;;;;;;;2.73;2.13;;;;;;;-6.39;62.47;101018.81;4946752;28;97320;-50
2021/12/26 07:42:32;;;;;;;3.10;2.10;;;;;;;-6.47;62.30;101018.00;4947623;28;97807;-51
2021/12/26 07:44:57;;;;;;;4.23;3.07;;;;;;;-6.51;62.46;101017.16;4949156;28;97087;-51
2021/12/26 07:47:22;;;;;;;4.47;2.57;;;;;;;-6.50;62.84;101018.72;4953175;28;97604;-51
2021/12/26 07:49:48;;;;;;;4.60;2.70;;;;;;;-6.49;63.05;101016.81;4943831;28;97334;-51
2021/12/26 07:52:18;;;;;;;3.87;2.63;;;;;;;-6.47;62.73;101009.97;4941883;28;97830;-50
2021/12/26 07:54:45;;;;;;;3.50;2.20;;;;;;;-6.44;62.78;101016.50;4946236;28;97396;-50
2021/12/26 07:57:10;;;;;;;3.10;2.20;;;;;;;-6.41;63.18;101016.53;4944791;28;97169;-50
2021/12/26 07:59:36;;;;;;;3.67;1.93;;;;;;;-6.36;62.95;101012.75;4942926;28;103281;-50
2021/12/26 08:02:02;;;;;;;4.60;2.30;;;;;;;-6.37;63.10;101017.31;4929420;28;99861;-50
2021/12/26 08:04:29;;;;;;;4.70;2.47;;;;;;;-6.38;62.82;101023.81;4925677;28;97125;-50
2021/12/26 08:06:55;;;;;;;6.93;3.07;;;;;;;-6.38;63.07;101023.81;4932107;28;116905;-50
2021/12/26 08:09:20;;;;;;;4.60;2.93;;;;;;;-6.39;63.09;101024.16;4926783;28;97079;-51
2021/12/26 08:11:46;;;;;;;5.23;2.87;;;;;;;-6.36;63.21;101034.16;4924823;28;99375;-51
2021/12/26 08:14:11;;;;;;;5.13;2.50;;;;;;;-6.30;63.58;101027.31;4922282;28;126795;-50
2021/12/26 08:16:37;;;;;;;3.60;2.10;;;;;;;-6.24;63.53;101020.47;4910472;28;97369;-51
2021/12/26 08:19:03;;;;;;;3.60;2.33;;;;;;;-6.19;63.36;101020.94;4925857;28;96915;-51
2021/12/26 08:21:29;;;;;;;4.07;2.50;;;;;;;-6.08;63.66;101030.94;4927554;28;97123;-51
2021/12/26 08:23:54;;;;;;;2.87;2.00;;;;;;;-6.00;63.43;101033.31;4927792;28;97162;-50
2021/12/26 08:26:19;;;;;;;3.97;2.60;;;;;;;-5.92;63.57;101028.78;4927474;28;103420;-50
2021/12/26 08:28:45;;;;;;;3.10;1.90;;;;;;;-5.91;63.25;101025.72;4929373;28;97042;-50
2021/12/26 08:31:10;;;;;;;3.10;2.07;;;;;;;-5.90;63.29;101023.84;4931010;28;97444;-50
2021/12/26 08:33:36;;;;;;;6.20;2.20;;;;;;;-5.89;63.19;101031.50;4934452;28;97268;-51
2021/12/26 08:36:02;;;;;;;3.10;2.17;;;;;;;-5.90;63.27;101019.25;4936239;28;96983;-50
2021/12/26 08:38:28;;;;;;;2.60;1.97;;;;;;;-5.92;63.23;101020.75;4930610;28;97059;-50
2021/12/26 08:40:55;;;;;;;3.13;2.00;;;;;;;-5.89;63.40;101022.69;4945326;28;97164;-51
2021/12/26 08:43:21;;;;;;;2.80;2.10;;;;;;;-5.82;63.63;101017.34;4932918;28;97650;-50
2021/12/26 08:45:47;;;;;;;4.40;2.17;;;;;;;-5.76;63.45;101018.53;4947239;28;97094;-51
2021/12/26 08:48:13;;;;;;;3.17;2.33;;;;;;;-5.76;63.30;101016.63;4947027;28;98107;-51
2021/12/26 08:50:38;;;;;;;2.90;2.07;;;;;;;-5.79;63.17;101019.28;4935167;28;97099;-51
2021/12/26 08:53:04;;;;;;;2.53;2.10;;;;;;;-5.75;63.42;101026.22;4933626;28;98335;-50
2021/12/26 08:55:29;;;;;;;5.30;2.53;;;;;;;-5.72;63.50;101008.63;4932826;28;97210;-50
2021/12/26 08:57:55;;;;;;;2.23;1.27;;;;;;;-5.68;63.42;101012.09;4940284;28;97202;-51
2021/12/26 09:00:22;;;;;;;2.70;1.57;;;;;;;-5.61;63.36;101010.22;4947819;28;97609;-50
2021/12/26 09:02:48;;;;;;;2.30;1.90;;;;;;;-5.59;63.51;101013.28;4940272;28;97345;-51
2021/12/26 09:05:14;;;;;;;3.00;2.20;;;;;;;-5.55;63.42;101014.09;4943799;28;96977;-50
2021/12/26 09:07:39;;;;;;;4.17;2.40;;;;;;;-5.47;63.64;101014.91;4945538;28;96840;-49
2021/12/26 09:10:06;;;;;;;2.00;1.80;;;;;;;-5.40;63.52;101010.38;4940330;28;97910;-53
2021/12/26 09:12:32;;;;;;;4.30;2.40;;;;;;;-5.36;63.62;101013.06;4947052;28;96941;-49
2021/12/26 09:14:57;;;;;;;11.27;2.40;;;;;;;-5.30;63.48;101014.22;4939503;28;97063;-49
2021/12/26 09:17:23;;;;;;;2.20;1.93;;;;;;;-5.22;63.79;101015.78;4943034;28;97477;-49
2021/12/26 09:19:49;;;;;;;4.67;2.30;;;;;;;-5.20;63.59;101024.25;4945938;28;96947;-49
2021/12/26 09:22:15;;;;;;;4.87;2.10;;;;;;;-5.14;63.76;101022.75;4941065;28;97793;-51
2021/12/26 09:24:42;;;;;;;2.90;1.63;;;;;;;-5.06;63.67;101028.88;4944764;28;96817;-49
2021/12/26 09:27:08;;;;;;;5.17;2.50;;;;;;;-4.99;63.86;101018.97;4940656;28;97233;-49
2021/12/26 09:29:33;;;;;;;3.80;2.07;;;;;;;-4.94;63.50;101015.16;4946090;28;97340;-49
2021/12/26 09:32:02;;;;;;;2.17;1.97;;;;;;;-4.93;63.57;101025.50;4944083;28;98404;-51
2021/12/26 09:34:29;;;;;;;4.17;2.10;;;;;;;-4.87;63.45;101033.97;4945480;28;96838;-49
2021/12/26 09:36:55;;;;;;;4.20;2.60;;;;;;;-4.87;63.90;101033.97;4946892;28;96935;-50
2021/12/26 09:39:22;;;;;;;2.53;1.73;;;;;;;-4.76;63.81;101027.47;4944594;28;98805;-52
2021/12/26 09:41:49;;;;;;;2.83;2.10;;;;;;;-4.68;63.62;101028.28;4947031;28;98356;-51
2021/12/26 09:44:14;;;;;;;3.70;2.30;;;;;;;-4.58;63.69;101014.09;4948797;28;97890;-52
2021/12/26 09:46:39;;;;;;;4.70;2.23;;;;;;;-4.53;63.72;101007.59;4935363;28;100981;-50
2021/12/26 09:49:04;;;;;;;3.83;2.33;;;;;;;-4.52;63.94;101001.09;4924113;28;97749;-49
2021/12/26 09:51:30;;;;;;;2.40;1.90;;;;;;;-4.46;64.00;101013.75;4928842;28;97129;-49
2021/12/26 09:53:55;;;;;;;5.70;2.80;;;;;;;-4.40;64.17;101006.09;4923731;28;97241;-52
2021/12/26 09:56:21;;;;;;;4.17;2.00;;;;;;;-4.35;64.15;101009.19;4933165;28;96878;-49
2021/12/26 09:59:02;;;;;;;6.30;2.50;;;;;;;-4.34;64.07;100999.94;4947028;28;97571;-52
2021/12/26 10:01:38;;;;;;;2.57;2.37;;;;;;;-4.29;64.02;101004.19;4933492;28;97195;-53
2021/12/26 10:04:24;;;;;;;3.50;2.50;;;;;;;-4.25;64.17;101002.25;4946957;28;97228;-49
2021/12/26 10:07:00;;;;;;;5.33;3.07;;;;;;;-4.19;64.13;101004.19;4955267;28;97018;-52
2021/12/26 10:09:26;;;;;;;7.90;2.90;;;;;;;-4.09;64.19;101003.44;4948409;28;100810;-50
2021/12/26 10:11:55;;;;;;;5.33;2.23;;;;;;;-4.01;64.09;101012.25;4949588;28;97737;-50
2021/12/26 10:14:23;;;;;;;1.93;1.60;;;;;;;-3.99;64.29;100999.97;4947870;28;97719;-51
2021/12/26 10:16:51;;;;;;;4.80;2.20;;;;;;;-3.88;64.30;100999.94;4945469;28;97025;-49
2021/12/26 10:19:17;;;;;;;2.33;1.93;;;;;;;-3.80;64.12;101034.50;4950658;28;97480;-49
2021/12/26 10:22:02;;;;;;;4.60;2.10;;;;;;;-3.72;64.18;101008.41;4948232;28;97408;-52
2021/12/26 10:24:37;;;;;;;4.00;2.60;;;;;;;-3.65;64.38;100999.56;4944025;28;97268;-49
2021/12/26 10:27:04;;;;;;;2.90;2.60;;;;;;;-3.60;64.42;100997.22;4950901;28;96976;-50
2021/12/26 10:29:35;;;;;;;3.87;2.47;;;;;;;-3.52;64.34;100996.06;4946761;28;98359;-49
2021/12/26 10:32:11;;;;;;;3.93;2.33;;;;;;;-3.42;64.48;100991.81;4948403;28;96853;-49
2021/12/26 10:34:48;;;;;;;3.77;2.37;;;;;;;-3.38;64.49;100987.94;4954093;28;96987;-50
2021/12/26 10:37:24;;;;;;;3.00;2.40;;;;;;;-3.35;64.36;100984.50;4946984;28;97461;-49
2021/12/26 10:39:53;;;;;;;6.00;2.43;;;;;;;-3.29;64.64;100977.56;4943651;28;103116;-51
2021/12/26 10:42:22;;;;;;;4.90;2.10;;;;;;;-3.20;64.55;100977.91;4947082;28;101840;-49
2021/12/26 10:44:57;;;;;;;3.13;2.67;;;;;;;-3.09;64.56;100977.88;4948054;28;97064;-52
2021/12/26 10:47:28;;;;;;;6.70;2.97;;;;;;;-2.99;64.47;100974.34;4949834;28;97116;-50
2021/12/26 10:50:13;;;;;;;4.10;2.30;;;;;;;-2.88;64.64;100974.31;4948950;28;100667;-52
2021/12/26 10:52:59;;;;;;;3.87;2.60;;;;;;;-2.84;64.48;100966.97;4944978;28;101524;-51
2021/12/26 10:55:36;;;;;;;4.40;2.10;;;;;;;-2.79;64.54;100970.00;4942828;28;96953;-52
2021/12/26 10:58:11;;;;;;;4.40;2.30;;;;;;;-2.69;64.46;100971.91;4953039;28;97207;-52
2021/12/26 11:00:38;;;;;;;6.43;3.00;;;;;;;-2.61;64.37;100964.53;4943868;28;102186;-49
2021/12/26 11:03:06;;;;;;;6.60;2.77;;;;;;;-2.55;64.29;100969.09;4950885;28;97324;-51
2021/12/26 11:05:31;;;;;;;3.90;2.33;;;;;;;-2.53;64.12;100968.69;4944240;28;97418;-51
2021/12/26 11:08:06;;;;;;;3.57;2.70;;;;;;;-2.50;64.48;100971.38;4946061;28;97986;-50
2021/12/26 11:10:38;;;;;;;3.47;2.27;;;;;;;-2.46;64.21;100974.03;4949543;28;97863;-50
2021/12/26 11:13:05;;;;;;;5.53;2.77;;;;;;;-2.40;64.37;100967.06;4945831;28;97036;-50
2021/12/26 11:15:37;;;;;;;3.63;2.43;;;;;;;-2.31;64.49;100965.47;4946368;28;97511;-50
2021/12/26 11:18:08;;;;;;;3.03;1.87;;;;;;;-2.22;64.35;100958.84;4946295;28;96771;-49
2021/12/26 11:20:37;;;;;;;4.07;2.77;;;;;;;-2.14;64.22;100957.66;4948983;28;97544;-49
2021/12/26 11:23:10;;;;;;;5.43;2.53;;;;;;;-2.11;64.14;100952.22;4948067;28;97458;-54
2021/12/26 11:25:39;;;;;;;3.43;2.50;;;;;;;-2.09;64.02;100944.50;4953901;28;96998;-50